sensor_id;sensor_type;location;lat;lon;timestamp;P1;durP1;ratioP1;P2;durP2;ratioP2
37383;SDS011;23258;49.718;11.082;2023-11-21T00:01:55;3.75;;;1.40;;
37383;SDS011;23258;49.718;11.082;2023-11-21T00:04:25;1.38;;;1.00;;
37383;SDS011;23258;49.718;11.082;2023-11-21T00:06:55;0.85;;;0.85;;
37383;SDS011;23258;49.718;11.082;2023-11-21T00:09:25;2.15;;;1.10;;
37383;SDS011;23258;49.718;11.082;2023-11-21T00:11:57;1.38;;;0.95;;
37383;SDS011;23258;49.718;11.082;2023-11-21T00:14:27;1.67;;;1.13;;
37383;SDS011;23258;49.718;11.082;2023-11-21T00:16:56;1.48;;;1.20;;
37383;SDS011;23258;49.718;11.082;2023-11-21T00:19:26;0.85;;;0.85;;
37383;SDS011;23258;49.718;11.082;2023-11-21T00:21:56;4.63;;;1.17;;
37383;SDS011;23258;49.718;11.082;2023-11-21T00:24:25;1.02;;;1.02;;
37383;SDS011;23258;49.718;11.082;2023-11-21T00:26:58;0.93;;;0.93;;
37383;SDS011;23258;49.718;11.082;2023-11-21T00:29:27;1.13;;;1.13;;
37383;SDS011;23258;49.718;11.082;2023-11-21T00:31:55;0.77;;;0.73;;
37383;SDS011;23258;49.718;11.082;2023-11-21T00:34:25;1.00;;;0.88;;
37383;SDS011;23258;49.718;11.082;2023-11-21T00:36:54;1.80;;;1.02;;
37383;SDS011;23258;49.718;11.082;2023-11-21T00:39:24;0.95;;;0.95;;
37383;SDS011;23258;49.718;11.082;2023-11-21T00:41:55;1.48;;;1.08;;
37383;SDS011;23258;49.718;11.082;2023-11-21T00:44:27;1.65;;;0.75;;
37383;SDS011;23258;49.718;11.082;2023-11-21T00:46:56;0.70;;;0.70;;
37383;SDS011;23258;49.718;11.082;2023-11-21T00:49:26;2.97;;;1.20;;
37383;SDS011;23258;49.718;11.082;2023-11-21T00:51:56;1.23;;;1.02;;
37383;SDS011;23258;49.718;11.082;2023-11-21T00:54:26;3.78;;;0.93;;
37383;SDS011;23258;49.718;11.082;2023-11-21T00:56:59;0.95;;;0.95;;
37383;SDS011;23258;49.718;11.082;2023-11-21T00:59:31;0.98;;;0.98;;
37383;SDS011;23258;49.718;11.082;2023-11-21T01:02:01;0.85;;;0.82;;
37383;SDS011;23258;49.718;11.082;2023-11-21T01:04:31;0.82;;;0.82;;
37383;SDS011;23258;49.718;11.082;2023-11-21T01:07:01;1.27;;;1.00;;
37383;SDS011;23258;49.718;11.082;2023-11-21T01:09:32;1.20;;;0.75;;
37383;SDS011;23258;49.718;11.082;2023-11-21T01:12:01;1.40;;;0.88;;
37383;SDS011;23258;49.718;11.082;2023-11-21T01:14:34;1.17;;;1.08;;
37383;SDS011;23258;49.718;11.082;2023-11-21T01:17:04;1.30;;;1.20;;
37383;SDS011;23258;49.718;11.082;2023-11-21T01:19:34;1.58;;;1.08;;
37383;SDS011;23258;49.718;11.082;2023-11-21T01:22:04;2.58;;;1.13;;
37383;SDS011;23258;49.718;11.082;2023-11-21T01:24:33;0.73;;;0.73;;
37383;SDS011;23258;49.718;11.082;2023-11-21T01:27:03;3.15;;;1.10;;
37383;SDS011;23258;49.718;11.082;2023-11-21T01:29:36;1.48;;;1.00;;
37383;SDS011;23258;49.718;11.082;2023-11-21T01:32:06;1.20;;;1.10;;
37383;SDS011;23258;49.718;11.082;2023-11-21T01:34:36;0.90;;;0.90;;
37383;SDS011;23258;49.718;11.082;2023-11-21T01:37:06;1.40;;;1.30;;
37383;SDS011;23258;49.718;11.082;2023-11-21T01:39:39;1.40;;;1.30;;
37383;SDS011;23258;49.718;11.082;2023-11-21T01:42:11;1.35;;;1.25;;
37383;SDS011;23258;49.718;11.082;2023-11-21T01:44:44;2.55;;;1.42;;
37383;SDS011;23258;49.718;11.082;2023-11-21T01:47:13;4.88;;;1.67;;
37383;SDS011;23258;49.718;11.082;2023-11-21T01:49:43;1.55;;;1.25;;
37383;SDS011;23258;49.718;11.082;2023-11-21T01:52:13;2.15;;;1.40;;
37383;SDS011;23258;49.718;11.082;2023-11-21T01:54:44;1.45;;;0.98;;
37383;SDS011;23258;49.718;11.082;2023-11-21T01:57:14;1.33;;;1.10;;
37383;SDS011;23258;49.718;11.082;2023-11-21T01:59:46;0.88;;;0.88;;
37383;SDS011;23258;49.718;11.082;2023-11-21T02:02:17;1.05;;;1.05;;
37383;SDS011;23258;49.718;11.082;2023-11-21T02:04:47;0.77;;;0.77;;
37383;SDS011;23258;49.718;11.082;2023-11-21T02:07:17;1.88;;;1.10;;
37383;SDS011;23258;49.718;11.082;2023-11-21T02:09:47;1.10;;;1.00;;
37383;SDS011;23258;49.718;11.082;2023-11-21T02:12:17;3.20;;;0.95;;
37383;SDS011;23258;49.718;11.082;2023-11-21T02:14:49;1.35;;;0.98;;
37383;SDS011;23258;49.718;11.082;2023-11-21T02:17:19;1.30;;;1.00;;
37383;SDS011;23258;49.718;11.082;2023-11-21T02:19:49;1.13;;;1.02;;
37383;SDS011;23258;49.718;11.082;2023-11-21T02:22:20;2.63;;;1.05;;
37383;SDS011;23258;49.718;11.082;2023-11-21T02:24:55;0.77;;;0.77;;
37383;SDS011;23258;49.718;11.082;2023-11-21T02:27:25;1.73;;;1.50;;
37383;SDS011;23258;49.718;11.082;2023-11-21T02:29:58;1.40;;;1.27;;
37383;SDS011;23258;49.718;11.082;2023-11-21T02:32:27;2.08;;;1.25;;
37383;SDS011;23258;49.718;11.082;2023-11-21T02:34:58;1.25;;;1.17;;
37383;SDS011;23258;49.718;11.082;2023-11-21T02:37:29;0.70;;;0.70;;
37383;SDS011;23258;49.718;11.082;2023-11-21T02:40:01;2.40;;;1.58;;
37383;SDS011;23258;49.718;11.082;2023-11-21T02:42:33;4.57;;;1.73;;
37383;SDS011;23258;49.718;11.082;2023-11-21T02:45:03;1.13;;;1.02;;
37383;SDS011;23258;49.718;11.082;2023-11-21T02:47:33;1.50;;;1.40;;
37383;SDS011;23258;49.718;11.082;2023-11-21T02:50:03;1.20;;;1.20;;
37383;SDS011;23258;49.718;11.082;2023-11-21T02:52:34;1.52;;;1.42;;
37383;SDS011;23258;49.718;11.082;2023-11-21T02:55:07;1.88;;;1.67;;
37383;SDS011;23258;49.718;11.082;2023-11-21T02:57:36;1.15;;;1.05;;
37383;SDS011;23258;49.718;11.082;2023-11-21T03:00:07;1.33;;;1.23;;
37383;SDS011;23258;49.718;11.082;2023-11-21T03:02:38;1.65;;;1.55;;
37383;SDS011;23258;49.718;11.082;2023-11-21T03:05:09;1.40;;;1.30;;
37383;SDS011;23258;49.718;11.082;2023-11-21T03:07:39;1.13;;;1.10;;
37383;SDS011;23258;49.718;11.082;2023-11-21T03:10:11;1.88;;;1.77;;
37383;SDS011;23258;49.718;11.082;2023-11-21T03:12:41;1.75;;;1.45;;
37383;SDS011;23258;49.718;11.082;2023-11-21T03:15:11;1.45;;;1.35;;
37383;SDS011;23258;49.718;11.082;2023-11-21T03:17:42;2.00;;;1.83;;
37383;SDS011;23258;49.718;11.082;2023-11-21T03:20:12;1.58;;;1.48;;
37383;SDS011;23258;49.718;11.082;2023-11-21T03:22:43;1.20;;;1.20;;
37383;SDS011;23258;49.718;11.082;2023-11-21T03:25:16;2.13;;;1.65;;
37383;SDS011;23258;49.718;11.082;2023-11-21T03:27:47;2.10;;;1.90;;
37383;SDS011;23258;49.718;11.082;2023-11-21T03:30:16;1.52;;;1.42;;
37383;SDS011;23258;49.718;11.082;2023-11-21T03:32:46;1.95;;;1.73;;
37383;SDS011;23258;49.718;11.082;2023-11-21T03:35:16;1.98;;;1.67;;
37383;SDS011;23258;49.718;11.082;2023-11-21T03:37:47;1.50;;;1.40;;
37383;SDS011;23258;49.718;11.082;2023-11-21T03:40:20;1.60;;;1.50;;
37383;SDS011;23258;49.718;11.082;2023-11-21T03:42:50;1.88;;;1.77;;
37383;SDS011;23258;49.718;11.082;2023-11-21T03:45:19;2.00;;;1.80;;
37383;SDS011;23258;49.718;11.082;2023-11-21T03:47:49;1.65;;;1.55;;
37383;SDS011;23258;49.718;11.082;2023-11-21T03:50:19;2.13;;;1.98;;
37383;SDS011;23258;49.718;11.082;2023-11-21T03:52:49;2.10;;;1.83;;
37383;SDS011;23258;49.718;11.082;2023-11-21T03:55:21;1.95;;;1.85;;
37383;SDS011;23258;49.718;11.082;2023-11-21T03:57:51;1.88;;;1.77;;
37383;SDS011;23258;49.718;11.082;2023-11-21T04:00:21;1.88;;;1.77;;
37383;SDS011;23258;49.718;11.082;2023-11-21T04:02:51;2.65;;;1.90;;
37383;SDS011;23258;49.718;11.082;2023-11-21T04:05:21;1.73;;;1.63;;
37383;SDS011;23258;49.718;11.082;2023-11-21T04:07:51;1.77;;;1.67;;
37383;SDS011;23258;49.718;11.082;2023-11-21T04:10:24;2.00;;;1.90;;
37383;SDS011;23258;49.718;11.082;2023-11-21T04:12:53;3.75;;;1.60;;
37383;SDS011;23258;49.718;11.082;2023-11-21T04:15:23;1.60;;;1.52;;
37383;SDS011;23258;49.718;11.082;2023-11-21T04:17:53;2.78;;;2.38;;
37383;SDS011;23258;49.718;11.082;2023-11-21T04:20:23;2.35;;;1.95;;
37383;SDS011;23258;49.718;11.082;2023-11-21T04:22:53;1.95;;;1.75;;
37383;SDS011;23258;49.718;11.082;2023-11-21T04:25:26;3.03;;;2.03;;
37383;SDS011;23258;49.718;11.082;2023-11-21T04:27:56;2.00;;;1.42;;
37383;SDS011;23258;49.718;11.082;2023-11-21T04:30:25;1.70;;;1.60;;
37383;SDS011;23258;49.718;11.082;2023-11-21T04:32:55;3.63;;;1.85;;
37383;SDS011;23258;49.718;11.082;2023-11-21T04:35:25;1.83;;;1.73;;
37383;SDS011;23258;49.718;11.082;2023-11-21T04:37:54;2.05;;;1.95;;
37383;SDS011;23258;49.718;11.082;2023-11-21T04:40:26;1.45;;;1.40;;
37383;SDS011;23258;49.718;11.082;2023-11-21T04:42:56;1.77;;;1.67;;
37383;SDS011;23258;49.718;11.082;2023-11-21T04:45:26;2.15;;;1.73;;
37383;SDS011;23258;49.718;11.082;2023-11-21T04:47:56;4.75;;;2.25;;
37383;SDS011;23258;49.718;11.082;2023-11-21T04:50:25;1.95;;;1.70;;
37383;SDS011;23258;49.718;11.082;2023-11-21T04:52:55;1.92;;;1.80;;
37383;SDS011;23258;49.718;11.082;2023-11-21T04:55:28;2.20;;;1.63;;
37383;SDS011;23258;49.718;11.082;2023-11-21T04:57:57;1.98;;;1.77;;
37383;SDS011;23258;49.718;11.082;2023-11-21T05:00:27;2.30;;;2.13;;
37383;SDS011;23258;49.718;11.082;2023-11-21T05:02:57;1.85;;;1.75;;
37383;SDS011;23258;49.718;11.082;2023-11-21T05:05:28;2.20;;;1.75;;
37383;SDS011;23258;49.718;11.082;2023-11-21T05:07:59;1.73;;;1.63;;
37383;SDS011;23258;49.718;11.082;2023-11-21T05:10:31;1.85;;;1.75;;
37383;SDS011;23258;49.718;11.082;2023-11-21T05:13:05;1.65;;;1.55;;
37383;SDS011;23258;49.718;11.082;2023-11-21T05:15:36;2.08;;;1.90;;
37383;SDS011;23258;49.718;11.082;2023-11-21T05:18:07;1.75;;;1.60;;
37383;SDS011;23258;49.718;11.082;2023-11-21T05:20:37;1.98;;;1.88;;
37383;SDS011;23258;49.718;11.082;2023-11-21T05:23:07;2.10;;;1.83;;
37383;SDS011;23258;49.718;11.082;2023-11-21T05:25:39;2.60;;;1.95;;
37383;SDS011;23258;49.718;11.082;2023-11-21T05:28:10;3.65;;;2.10;;
37383;SDS011;23258;49.718;11.082;2023-11-21T05:30:39;2.53;;;1.92;;
37383;SDS011;23258;49.718;11.082;2023-11-21T05:33:09;4.45;;;1.90;;
37383;SDS011;23258;49.718;11.082;2023-11-21T05:35:39;1.88;;;1.77;;
37383;SDS011;23258;49.718;11.082;2023-11-21T05:38:08;2.83;;;2.08;;
37383;SDS011;23258;49.718;11.082;2023-11-21T05:40:41;2.10;;;1.90;;
37383;SDS011;23258;49.718;11.082;2023-11-21T05:43:10;2.10;;;1.90;;
37383;SDS011;23258;49.718;11.082;2023-11-21T05:45:42;2.50;;;2.40;;
37383;SDS011;23258;49.718;11.082;2023-11-21T05:48:11;2.53;;;2.35;;
37383;SDS011;23258;49.718;11.082;2023-11-21T05:50:42;2.85;;;2.65;;
37383;SDS011;23258;49.718;11.082;2023-11-21T05:53:12;3.78;;;2.83;;
37383;SDS011;23258;49.718;11.082;2023-11-21T05:55:45;3.38;;;2.85;;
37383;SDS011;23258;49.718;11.082;2023-11-21T05:58:15;3.20;;;2.88;;
37383;SDS011;23258;49.718;11.082;2023-11-21T06:00:44;3.25;;;3.00;;
37383;SDS011;23258;49.718;11.082;2023-11-21T06:03:14;2.60;;;2.45;;
37383;SDS011;23258;49.718;11.082;2023-11-21T06:05:44;2.10;;;2.00;;
37383;SDS011;23258;49.718;11.082;2023-11-21T06:08:14;2.88;;;2.28;;
37383;SDS011;23258;49.718;11.082;2023-11-21T06:10:46;2.08;;;1.98;;
37383;SDS011;23258;49.718;11.082;2023-11-21T06:13:16;4.35;;;2.60;;
37383;SDS011;23258;49.718;11.082;2023-11-21T06:15:51;3.13;;;2.67;;
37383;SDS011;23258;49.718;11.082;2023-11-21T06:18:24;2.75;;;2.50;;
37383;SDS011;23258;49.718;11.082;2023-11-21T06:20:54;3.03;;;2.70;;
37383;SDS011;23258;49.718;11.082;2023-11-21T06:23:24;2.45;;;2.25;;
37383;SDS011;23258;49.718;11.082;2023-11-21T06:25:57;2.83;;;2.60;;
37383;SDS011;23258;49.718;11.082;2023-11-21T06:28:27;2.30;;;2.10;;
37383;SDS011;23258;49.718;11.082;2023-11-21T06:30:57;2.53;;;2.30;;
37383;SDS011;23258;49.718;11.082;2023-11-21T06:33:32;3.00;;;2.55;;
37383;SDS011;23258;49.718;11.082;2023-11-21T06:36:01;3.30;;;2.30;;
37383;SDS011;23258;49.718;11.082;2023-11-21T06:38:32;2.28;;;2.17;;
37383;SDS011;23258;49.718;11.082;2023-11-21T06:41:05;3.25;;;2.63;;
37383;SDS011;23258;49.718;11.082;2023-11-21T06:43:35;4.47;;;2.45;;
37383;SDS011;23258;49.718;11.082;2023-11-21T06:46:05;2.88;;;2.42;;
37383;SDS011;23258;49.718;11.082;2023-11-21T06:48:35;2.40;;;2.28;;
37383;SDS011;23258;49.718;11.082;2023-11-21T06:51:05;3.25;;;2.78;;
37383;SDS011;23258;49.718;11.082;2023-11-21T06:53:35;3.03;;;2.72;;
37383;SDS011;23258;49.718;11.082;2023-11-21T06:56:14;4.95;;;2.97;;
37383;SDS011;23258;49.718;11.082;2023-11-21T06:58:44;3.15;;;2.42;;
37383;SDS011;23258;49.718;11.082;2023-11-21T07:01:15;4.10;;;3.78;;
37383;SDS011;23258;49.718;11.082;2023-11-21T07:03:45;5.03;;;4.63;;
37383;SDS011;23258;49.718;11.082;2023-11-21T07:06:15;5.97;;;3.85;;
37383;SDS011;23258;49.718;11.082;2023-11-21T07:08:45;3.17;;;2.97;;
37383;SDS011;23258;49.718;11.082;2023-11-21T07:11:17;3.53;;;3.22;;
37383;SDS011;23258;49.718;11.082;2023-11-21T07:13:47;4.53;;;3.47;;
37383;SDS011;23258;49.718;11.082;2023-11-21T07:16:17;4.53;;;3.53;;
37383;SDS011;23258;49.718;11.082;2023-11-21T07:18:47;4.88;;;3.58;;
37383;SDS011;23258;49.718;11.082;2023-11-21T07:21:17;3.55;;;3.35;;
37383;SDS011;23258;49.718;11.082;2023-11-21T07:23:47;3.22;;;2.85;;
37383;SDS011;23258;49.718;11.082;2023-11-21T07:26:19;5.55;;;3.88;;
37383;SDS011;23258;49.718;11.082;2023-11-21T07:28:49;3.50;;;3.20;;
37383;SDS011;23258;49.718;11.082;2023-11-21T07:31:19;3.50;;;3.20;;
37383;SDS011;23258;49.718;11.082;2023-11-21T07:33:49;5.65;;;2.60;;
37383;SDS011;23258;49.718;11.082;2023-11-21T07:36:20;3.30;;;3.00;;
37383;SDS011;23258;49.718;11.082;2023-11-21T07:38:50;5.60;;;3.50;;
37383;SDS011;23258;49.718;11.082;2023-11-21T07:41:22;4.88;;;3.80;;
37383;SDS011;23258;49.718;11.082;2023-11-21T07:43:57;3.67;;;3.38;;
37383;SDS011;23258;49.718;11.082;2023-11-21T07:46:27;3.42;;;3.13;;
37383;SDS011;23258;49.718;11.082;2023-11-21T07:48:57;3.50;;;3.20;;
37383;SDS011;23258;49.718;11.082;2023-11-21T07:51:26;5.40;;;3.30;;
37383;SDS011;23258;49.718;11.082;2023-11-21T07:53:59;3.75;;;3.45;;
37383;SDS011;23258;49.718;11.082;2023-11-21T07:56:31;4.18;;;3.25;;
37383;SDS011;23258;49.718;11.082;2023-11-21T07:59:01;3.38;;;3.08;;
37383;SDS011;23258;49.718;11.082;2023-11-21T08:01:31;4.22;;;3.83;;
37383;SDS011;23258;49.718;11.082;2023-11-21T08:04:01;3.95;;;3.55;;
37383;SDS011;23258;49.718;11.082;2023-11-21T08:06:31;4.03;;;3.17;;
37383;SDS011;23258;49.718;11.082;2023-11-21T08:09:01;4.93;;;3.05;;
37383;SDS011;23258;49.718;11.082;2023-11-21T08:11:33;3.42;;;2.97;;
37383;SDS011;23258;49.718;11.082;2023-11-21T08:14:05;3.50;;;3.20;;
37383;SDS011;23258;49.718;11.082;2023-11-21T08:16:35;4.72;;;3.58;;
37383;SDS011;23258;49.718;11.082;2023-11-21T08:19:05;3.70;;;3.40;;
37383;SDS011;23258;49.718;11.082;2023-11-21T08:21:36;3.35;;;3.00;;
37383;SDS011;23258;49.718;11.082;2023-11-21T08:24:07;6.78;;;3.90;;
37383;SDS011;23258;49.718;11.082;2023-11-21T08:26:40;4.55;;;4.15;;
37383;SDS011;23258;49.718;11.082;2023-11-21T08:29:10;3.40;;;3.10;;
37383;SDS011;23258;49.718;11.082;2023-11-21T08:31:40;5.43;;;4.93;;
37383;SDS011;23258;49.718;11.082;2023-11-21T08:34:10;5.22;;;4.72;;
37383;SDS011;23258;49.718;11.082;2023-11-21T08:36:41;4.30;;;3.83;;
37383;SDS011;23258;49.718;11.082;2023-11-21T08:39:12;4.03;;;3.63;;
37383;SDS011;23258;49.718;11.082;2023-11-21T08:41:45;4.38;;;3.97;;
37383;SDS011;23258;49.718;11.082;2023-11-21T08:44:15;5.38;;;3.22;;
37383;SDS011;23258;49.718;11.082;2023-11-21T08:46:45;5.07;;;4.57;;
37383;SDS011;23258;49.718;11.082;2023-11-21T08:49:15;4.22;;;3.92;;
37383;SDS011;23258;49.718;11.082;2023-11-21T08:51:45;4.30;;;3.97;;
37383;SDS011;23258;49.718;11.082;2023-11-21T08:54:15;5.55;;;4.82;;
37383;SDS011;23258;49.718;11.082;2023-11-21T08:56:48;10.32;;;8.70;;
37383;SDS011;23258;49.718;11.082;2023-11-21T08:59:18;8.57;;;6.75;;
37383;SDS011;23258;49.718;11.082;2023-11-21T09:01:47;5.78;;;4.82;;
37383;SDS011;23258;49.718;11.082;2023-11-21T09:04:17;5.03;;;4.53;;
37383;SDS011;23258;49.718;11.082;2023-11-21T09:06:47;5.72;;;4.88;;
37383;SDS011;23258;49.718;11.082;2023-11-21T09:09:17;5.63;;;5.03;;
37383;SDS011;23258;49.718;11.082;2023-11-21T09:11:49;5.05;;;3.85;;
37383;SDS011;23258;49.718;11.082;2023-11-21T09:14:19;4.30;;;3.92;;
37383;SDS011;23258;49.718;11.082;2023-11-21T09:16:48;5.60;;;4.30;;
37383;SDS011;23258;49.718;11.082;2023-11-21T09:19:18;5.30;;;4.55;;
37383;SDS011;23258;49.718;11.082;2023-11-21T09:21:48;4.03;;;3.72;;
37383;SDS011;23258;49.718;11.082;2023-11-21T09:24:18;4.35;;;3.95;;
37383;SDS011;23258;49.718;11.082;2023-11-21T09:26:50;4.90;;;4.47;;
37383;SDS011;23258;49.718;11.082;2023-11-21T09:29:20;5.07;;;4.43;;
37383;SDS011;23258;49.718;11.082;2023-11-21T09:31:49;5.65;;;4.05;;
37383;SDS011;23258;49.718;11.082;2023-11-21T09:34:21;8.55;;;4.20;;
37383;SDS011;23258;49.718;11.082;2023-11-21T09:36:52;5.05;;;4.40;;
37383;SDS011;23258;49.718;11.082;2023-11-21T09:39:21;4.47;;;4.07;;
37383;SDS011;23258;49.718;11.082;2023-11-21T09:41:56;5.63;;;4.40;;
37383;SDS011;23258;49.718;11.082;2023-11-21T09:44:30;4.43;;;4.03;;
37383;SDS011;23258;49.718;11.082;2023-11-21T09:47:02;4.63;;;4.22;;
37383;SDS011;23258;49.718;11.082;2023-11-21T09:49:35;4.78;;;4.38;;
37383;SDS011;23258;49.718;11.082;2023-11-21T09:52:05;4.93;;;4.53;;
37383;SDS011;23258;49.718;11.082;2023-11-21T09:54:37;6.22;;;4.43;;
37383;SDS011;23258;49.718;11.082;2023-11-21T09:57:09;4.35;;;4.05;;
37383;SDS011;23258;49.718;11.082;2023-11-21T09:59:42;8.00;;;3.90;;
37383;SDS011;23258;49.718;11.082;2023-11-21T10:02:13;3.85;;;3.42;;
37383;SDS011;23258;49.718;11.082;2023-11-21T10:04:45;4.07;;;3.70;;
37383;SDS011;23258;49.718;11.082;2023-11-21T10:07:16;4.70;;;3.63;;
37383;SDS011;23258;49.718;11.082;2023-11-21T10:09:47;3.40;;;3.20;;
37383;SDS011;23258;49.718;11.082;2023-11-21T10:12:20;3.72;;;3.45;;
37383;SDS011;23258;49.718;11.082;2023-11-21T10:14:50;4.57;;;3.78;;
37383;SDS011;23258;49.718;11.082;2023-11-21T10:17:21;3.83;;;3.53;;
37383;SDS011;23258;49.718;11.082;2023-11-21T10:19:57;5.80;;;3.88;;
37383;SDS011;23258;49.718;11.082;2023-11-21T10:22:27;4.45;;;4.05;;
37383;SDS011;23258;49.718;11.082;2023-11-21T10:24:57;4.38;;;3.97;;
37383;SDS011;23258;49.718;11.082;2023-11-21T10:27:30;4.45;;;4.15;;
37383;SDS011;23258;49.718;11.082;2023-11-21T10:30:00;4.72;;;4.00;;
37383;SDS011;23258;49.718;11.082;2023-11-21T10:32:30;3.63;;;3.33;;
37383;SDS011;23258;49.718;11.082;2023-11-21T10:35:01;5.18;;;3.83;;
37383;SDS011;23258;49.718;11.082;2023-11-21T10:37:33;4.45;;;4.05;;
37383;SDS011;23258;49.718;11.082;2023-11-21T10:40:03;6.78;;;4.25;;
37383;SDS011;23258;49.718;11.082;2023-11-21T10:42:36;3.97;;;3.63;;
37383;SDS011;23258;49.718;11.082;2023-11-21T10:45:06;3.97;;;3.65;;
37383;SDS011;23258;49.718;11.082;2023-11-21T10:47:40;4.43;;;4.03;;
37383;SDS011;23258;49.718;11.082;2023-11-21T10:50:10;6.20;;;3.65;;
37383;SDS011;23258;49.718;11.082;2023-11-21T10:52:41;4.28;;;3.92;;
37383;SDS011;23258;49.718;11.082;2023-11-21T10:55:17;4.25;;;3.78;;
37383;SDS011;23258;49.718;11.082;2023-11-21T10:57:52;4.32;;;3.92;;
37383;SDS011;23258;49.718;11.082;2023-11-21T11:00:22;4.90;;;4.38;;
37383;SDS011;23258;49.718;11.082;2023-11-21T11:02:53;4.07;;;3.67;;
37383;SDS011;23258;49.718;11.082;2023-11-21T11:05:26;5.00;;;4.43;;
37383;SDS011;23258;49.718;11.082;2023-11-21T11:07:58;4.38;;;3.97;;
37383;SDS011;23258;49.718;11.082;2023-11-21T11:10:29;6.65;;;4.30;;
37383;SDS011;23258;49.718;11.082;2023-11-21T11:13:01;5.00;;;4.20;;
37383;SDS011;23258;49.718;11.082;2023-11-21T11:15:31;7.22;;;4.72;;
37383;SDS011;23258;49.718;11.082;2023-11-21T11:18:01;7.30;;;3.67;;
37383;SDS011;23258;49.718;11.082;2023-11-21T11:20:34;4.35;;;3.42;;
37383;SDS011;23258;49.718;11.082;2023-11-21T11:23:11;4.05;;;3.63;;
37383;SDS011;23258;49.718;11.082;2023-11-21T11:25:47;3.75;;;3.45;;
37383;SDS011;23258;49.718;11.082;2023-11-21T11:31:11;3.85;;;3.45;;
37383;SDS011;23258;49.718;11.082;2023-11-21T11:33:46;3.25;;;2.92;;
37383;SDS011;23258;49.718;11.082;2023-11-21T11:36:20;2.83;;;2.58;;
37383;SDS011;23258;49.718;11.082;2023-11-21T11:38:52;3.40;;;3.05;;
37383;SDS011;23258;49.718;11.082;2023-11-21T11:41:26;6.43;;;2.92;;
37383;SDS011;23258;49.718;11.082;2023-11-21T11:43:59;4.07;;;3.10;;
37383;SDS011;23258;49.718;11.082;2023-11-21T11:46:41;3.92;;;3.45;;
37383;SDS011;23258;49.718;11.082;2023-11-21T11:49:23;3.30;;;3.08;;
37383;SDS011;23258;49.718;11.082;2023-11-21T11:54:38;3.72;;;3.42;;
37383;SDS011;23258;49.718;11.082;2023-11-21T11:57:08;3.30;;;3.00;;
37383;SDS011;23258;49.718;11.082;2023-11-21T12:02:25;3.47;;;3.17;;
37383;SDS011;23258;49.718;11.082;2023-11-21T12:04:55;3.05;;;2.83;;
37383;SDS011;23258;49.718;11.082;2023-11-21T12:07:31;3.58;;;3.28;;
37383;SDS011;23258;49.718;11.082;2023-11-21T12:10:09;6.55;;;2.83;;
37383;SDS011;23258;49.718;11.082;2023-11-21T12:12:42;2.70;;;2.50;;
37383;SDS011;23258;49.718;11.082;2023-11-21T12:15:13;2.75;;;2.55;;
37383;SDS011;23258;49.718;11.082;2023-11-21T12:17:45;3.33;;;2.97;;
37383;SDS011;23258;49.718;11.082;2023-11-21T12:20:18;2.85;;;2.65;;
37383;SDS011;23258;49.718;11.082;2023-11-21T12:22:48;2.83;;;2.63;;
37383;SDS011;23258;49.718;11.082;2023-11-21T12:25:18;4.47;;;2.85;;
37383;SDS011;23258;49.718;11.082;2023-11-21T12:27:49;3.17;;;2.85;;
37383;SDS011;23258;49.718;11.082;2023-11-21T12:30:19;3.90;;;2.92;;
37383;SDS011;23258;49.718;11.082;2023-11-21T12:32:52;3.70;;;3.20;;
37383;SDS011;23258;49.718;11.082;2023-11-21T12:35:24;5.25;;;3.20;;
37383;SDS011;23258;49.718;11.082;2023-11-21T12:37:54;3.60;;;2.70;;
37383;SDS011;23258;49.718;11.082;2023-11-21T12:40:24;2.60;;;2.50;;
37383;SDS011;23258;49.718;11.082;2023-11-21T12:42:55;3.80;;;2.80;;
37383;SDS011;23258;49.718;11.082;2023-11-21T12:45:26;2.42;;;2.22;;
37383;SDS011;23258;49.718;11.082;2023-11-21T12:48:01;2.85;;;2.60;;
37383;SDS011;23258;49.718;11.082;2023-11-21T12:50:35;2.03;;;1.92;;
37383;SDS011;23258;49.718;11.082;2023-11-21T12:53:05;2.13;;;1.98;;
37383;SDS011;23258;49.718;11.082;2023-11-21T12:55:37;2.88;;;2.67;;
37383;SDS011;23258;49.718;11.082;2023-11-21T12:58:09;4.32;;;3.05;;
37383;SDS011;23258;49.718;11.082;2023-11-21T13:00:40;4.38;;;2.75;;
37383;SDS011;23258;49.718;11.082;2023-11-21T13:03:14;2.20;;;1.98;;
37383;SDS011;23258;49.718;11.082;2023-11-21T13:05:50;2.35;;;2.15;;
37383;SDS011;23258;49.718;11.082;2023-11-21T13:08:21;3.05;;;2.70;;
37383;SDS011;23258;49.718;11.082;2023-11-21T13:10:52;2.80;;;2.42;;
37383;SDS011;23258;49.718;11.082;2023-11-21T13:13:24;2.10;;;1.88;;
37383;SDS011;23258;49.718;11.082;2023-11-21T13:15:55;2.05;;;1.90;;
37383;SDS011;23258;49.718;11.082;2023-11-21T13:18:30;1.65;;;1.55;;
37383;SDS011;23258;49.718;11.082;2023-11-21T13:21:01;2.63;;;2.10;;
37383;SDS011;23258;49.718;11.082;2023-11-21T13:23:37;2.38;;;2.17;;
37383;SDS011;23258;49.718;11.082;2023-11-21T13:26:08;1.77;;;1.67;;
37383;SDS011;23258;49.718;11.082;2023-11-21T13:28:39;2.10;;;2.00;;
37383;SDS011;23258;49.718;11.082;2023-11-21T13:31:13;2.20;;;2.10;;
37383;SDS011;23258;49.718;11.082;2023-11-21T13:33:56;4.50;;;2.95;;
37383;SDS011;23258;49.718;11.082;2023-11-21T13:36:32;2.53;;;2.33;;
37383;SDS011;23258;49.718;11.082;2023-11-21T13:39:02;3.78;;;2.80;;
37383;SDS011;23258;49.718;11.082;2023-11-21T13:41:35;1.77;;;1.67;;
37383;SDS011;23258;49.718;11.082;2023-11-21T13:44:05;3.30;;;2.03;;
37383;SDS011;23258;49.718;11.082;2023-11-21T13:46:43;2.42;;;2.00;;
37383;SDS011;23258;49.718;11.082;2023-11-21T13:49:16;2.80;;;2.00;;
37383;SDS011;23258;49.718;11.082;2023-11-21T13:51:48;4.40;;;2.05;;
37383;SDS011;23258;49.718;11.082;2023-11-21T13:54:21;2.00;;;1.77;;
37383;SDS011;23258;49.718;11.082;2023-11-21T13:56:52;3.15;;;1.70;;
37383;SDS011;23258;49.718;11.082;2023-11-21T13:59:22;1.80;;;1.70;;
37383;SDS011;23258;49.718;11.082;2023-11-21T14:01:53;2.97;;;1.45;;
37383;SDS011;23258;49.718;11.082;2023-11-21T14:04:29;1.65;;;1.52;;
37383;SDS011;23258;49.718;11.082;2023-11-21T14:07:20;2.10;;;2.00;;
37383;SDS011;23258;49.718;11.082;2023-11-21T14:10:00;1.50;;;1.40;;
37383;SDS011;23258;49.718;11.082;2023-11-21T14:12:30;1.40;;;1.33;;
37383;SDS011;23258;49.718;11.082;2023-11-21T14:15:05;2.15;;;1.42;;
37383;SDS011;23258;49.718;11.082;2023-11-21T14:17:37;2.35;;;1.35;;
37383;SDS011;23258;49.718;11.082;2023-11-21T14:20:11;3.17;;;1.73;;
37383;SDS011;23258;49.718;11.082;2023-11-21T14:22:43;3.33;;;2.15;;
37383;SDS011;23258;49.718;11.082;2023-11-21T14:25:13;3.03;;;1.85;;
37383;SDS011;23258;49.718;11.082;2023-11-21T14:27:44;2.10;;;1.90;;
37383;SDS011;23258;49.718;11.082;2023-11-21T14:30:14;3.15;;;1.95;;
37383;SDS011;23258;49.718;11.082;2023-11-21T14:32:46;2.53;;;2.33;;
37383;SDS011;23258;49.718;11.082;2023-11-21T14:35:21;2.65;;;2.45;;
37383;SDS011;23258;49.718;11.082;2023-11-21T14:37:51;2.35;;;2.17;;
37383;SDS011;23258;49.718;11.082;2023-11-21T14:40:22;3.28;;;2.05;;
37383;SDS011;23258;49.718;11.082;2023-11-21T14:42:52;2.70;;;2.50;;
37383;SDS011;23258;49.718;11.082;2023-11-21T14:45:23;7.00;;;2.63;;
37383;SDS011;23258;49.718;11.082;2023-11-21T14:47:53;2.30;;;2.10;;
37383;SDS011;23258;49.718;11.082;2023-11-21T14:50:35;2.40;;;2.05;;
37383;SDS011;23258;49.718;11.082;2023-11-21T14:53:20;2.65;;;1.92;;
37383;SDS011;23258;49.718;11.082;2023-11-21T14:56:10;2.40;;;2.20;;
37383;SDS011;23258;49.718;11.082;2023-11-21T14:58:37;2.08;;;1.88;;
37383;SDS011;23258;49.718;11.082;2023-11-21T15:01:07;2.00;;;1.73;;
37383;SDS011;23258;49.718;11.082;2023-11-21T15:03:35;2.78;;;2.58;;
37383;SDS011;23258;49.718;11.082;2023-11-21T15:06:19;2.38;;;1.98;;